sensor_id;sensor_type;location;lat;lon;timestamp;P1;durP1;ratioP1;P2;durP2;ratioP2
15153;SDS011;7677;41.896;25.004;2024-02-23T00:02:15;4.83;;;4.20;;
15153;SDS011;7677;41.896;25.004;2024-02-23T00:04:42;6.97;;;4.83;;
15153;SDS011;7677;41.896;25.004;2024-02-23T00:07:10;5.83;;;4.40;;
15153;SDS011;7677;41.896;25.004;2024-02-23T00:09:37;6.17;;;4.50;;
15153;SDS011;7677;41.896;25.004;2024-02-23T00:12:05;7.83;;;4.53;;
15153;SDS011;7677;41.896;25.004;2024-02-23T00:14:35;7.93;;;5.17;;
15153;SDS011;7677;41.896;25.004;2024-02-23T00:17:02;6.73;;;4.83;;
15153;SDS011;7677;41.896;25.004;2024-02-23T00:19:30;7.57;;;4.30;;
15153;SDS011;7677;41.896;25.004;2024-02-23T00:21:57;7.67;;;4.70;;
15153;SDS011;7677;41.896;25.004;2024-02-23T00:24:25;7.10;;;4.93;;
15153;SDS011;7677;41.896;25.004;2024-02-23T00:26:53;6.83;;;4.43;;
15153;SDS011;7677;41.896;25.004;2024-02-23T00:29:20;7.03;;;4.73;;
15153;SDS011;7677;41.896;25.004;2024-02-23T00:31:49;4.87;;;4.37;;
15153;SDS011;7677;41.896;25.004;2024-02-23T00:34:16;6.13;;;5.43;;
15153;SDS011;7677;41.896;25.004;2024-02-23T00:36:43;8.03;;;5.77;;
15153;SDS011;7677;41.896;25.004;2024-02-23T00:39:11;7.70;;;5.47;;
15153;SDS011;7677;41.896;25.004;2024-02-23T00:41:38;4.80;;;4.07;;
15153;SDS011;7677;41.896;25.004;2024-02-23T00:44:05;6.37;;;5.17;;
15153;SDS011;7677;41.896;25.004;2024-02-23T00:46:32;5.33;;;4.60;;
15153;SDS011;7677;41.896;25.004;2024-02-23T00:49:01;5.03;;;4.50;;
15153;SDS011;7677;41.896;25.004;2024-02-23T00:51:28;5.00;;;4.50;;
15153;SDS011;7677;41.896;25.004;2024-02-23T00:53:56;6.57;;;4.73;;
15153;SDS011;7677;41.896;25.004;2024-02-23T00:56:23;7.43;;;5.20;;
15153;SDS011;7677;41.896;25.004;2024-02-23T00:58:51;5.67;;;4.77;;
15153;SDS011;7677;41.896;25.004;2024-02-23T01:01:18;6.27;;;4.77;;
15153;SDS011;7677;41.896;25.004;2024-02-23T01:03:45;7.53;;;4.83;;
15153;SDS011;7677;41.896;25.004;2024-02-23T01:06:14;6.33;;;5.03;;
15153;SDS011;7677;41.896;25.004;2024-02-23T01:08:42;6.43;;;5.20;;
15153;SDS011;7677;41.896;25.004;2024-02-23T01:11:09;7.10;;;5.07;;
15153;SDS011;7677;41.896;25.004;2024-02-23T01:13:36;6.83;;;4.80;;
15153;SDS011;7677;41.896;25.004;2024-02-23T01:16:03;6.53;;;4.87;;
15153;SDS011;7677;41.896;25.004;2024-02-23T01:18:31;5.77;;;5.03;;
15153;SDS011;7677;41.896;25.004;2024-02-23T01:20:58;7.17;;;5.30;;
15153;SDS011;7677;41.896;25.004;2024-02-23T01:23:27;7.30;;;5.00;;
15153;SDS011;7677;41.896;25.004;2024-02-23T01:25:54;5.87;;;4.80;;
15153;SDS011;7677;41.896;25.004;2024-02-23T01:28:21;6.23;;;4.97;;
15153;SDS011;7677;41.896;25.004;2024-02-23T01:30:48;8.37;;;5.63;;
15153;SDS011;7677;41.896;25.004;2024-02-23T01:33:16;5.93;;;4.60;;
15153;SDS011;7677;41.896;25.004;2024-02-23T01:35:43;6.43;;;5.30;;
15153;SDS011;7677;41.896;25.004;2024-02-23T01:38:10;7.37;;;4.40;;
15153;SDS011;7677;41.896;25.004;2024-02-23T01:40:45;6.70;;;5.23;;
15153;SDS011;7677;41.896;25.004;2024-02-23T01:43:13;5.47;;;4.53;;
15153;SDS011;7677;41.896;25.004;2024-02-23T01:45:40;7.37;;;5.13;;
15153;SDS011;7677;41.896;25.004;2024-02-23T01:48:07;6.43;;;4.87;;
15153;SDS011;7677;41.896;25.004;2024-02-23T01:50:34;6.00;;;4.73;;
15153;SDS011;7677;41.896;25.004;2024-02-23T01:53:02;6.57;;;4.73;;
15153;SDS011;7677;41.896;25.004;2024-02-23T01:55:29;6.20;;;4.67;;
15153;SDS011;7677;41.896;25.004;2024-02-23T01:57:58;6.10;;;5.03;;
15153;SDS011;7677;41.896;25.004;2024-02-23T02:00:25;6.03;;;5.00;;
15153;SDS011;7677;41.896;25.004;2024-02-23T02:02:52;5.70;;;4.53;;
15153;SDS011;7677;41.896;25.004;2024-02-23T02:05:20;6.50;;;4.87;;
15153;SDS011;7677;41.896;25.004;2024-02-23T02:07:47;5.17;;;4.67;;
15153;SDS011;7677;41.896;25.004;2024-02-23T02:10:19;8.73;;;5.00;;
15153;SDS011;7677;41.896;25.004;2024-02-23T02:12:47;6.07;;;4.40;;
15153;SDS011;7677;41.896;25.004;2024-02-23T02:15:16;5.17;;;4.43;;
15153;SDS011;7677;41.896;25.004;2024-02-23T02:17:43;7.43;;;4.87;;
15153;SDS011;7677;41.896;25.004;2024-02-23T02:20:11;7.17;;;5.57;;
15153;SDS011;7677;41.896;25.004;2024-02-23T02:22:39;6.67;;;5.33;;
15153;SDS011;7677;41.896;25.004;2024-02-23T02:25:06;6.67;;;5.07;;
15153;SDS011;7677;41.896;25.004;2024-02-23T02:27:34;5.60;;;4.73;;
15153;SDS011;7677;41.896;25.004;2024-02-23T02:30:01;6.63;;;5.00;;
15153;SDS011;7677;41.896;25.004;2024-02-23T02:32:30;7.17;;;4.97;;
15153;SDS011;7677;41.896;25.004;2024-02-23T02:34:58;6.03;;;4.80;;
15153;SDS011;7677;41.896;25.004;2024-02-23T02:37:25;5.57;;;4.87;;
15153;SDS011;7677;41.896;25.004;2024-02-23T02:39:52;7.70;;;4.83;;
15153;SDS011;7677;41.896;25.004;2024-02-23T02:42:20;8.00;;;5.53;;
15153;SDS011;7677;41.896;25.004;2024-02-23T02:44:47;6.60;;;4.87;;
15153;SDS011;7677;41.896;25.004;2024-02-23T02:47:14;6.30;;;4.83;;
15153;SDS011;7677;41.896;25.004;2024-02-23T02:49:43;6.27;;;4.80;;
15153;SDS011;7677;41.896;25.004;2024-02-23T02:52:10;6.43;;;4.70;;
15153;SDS011;7677;41.896;25.004;2024-02-23T02:54:38;5.63;;;4.60;;
15153;SDS011;7677;41.896;25.004;2024-02-23T02:57:05;7.10;;;5.10;;
15153;SDS011;7677;41.896;25.004;2024-02-23T02:59:33;6.07;;;4.80;;
15153;SDS011;7677;41.896;25.004;2024-02-23T03:02:01;6.73;;;5.40;;
15153;SDS011;7677;41.896;25.004;2024-02-23T03:04:28;8.20;;;5.67;;
15153;SDS011;7677;41.896;25.004;2024-02-23T03:06:57;6.13;;;5.10;;
15153;SDS011;7677;41.896;25.004;2024-02-23T03:09:24;6.90;;;5.07;;
15153;SDS011;7677;41.896;25.004;2024-02-23T03:11:51;7.07;;;5.17;;
15153;SDS011;7677;41.896;25.004;2024-02-23T03:14:18;7.63;;;5.93;;
15153;SDS011;7677;41.896;25.004;2024-02-23T03:16:46;8.93;;;6.00;;
15153;SDS011;7677;41.896;25.004;2024-02-23T03:19:14;6.87;;;5.23;;
15153;SDS011;7677;41.896;25.004;2024-02-23T03:21:41;6.27;;;4.83;;
15153;SDS011;7677;41.896;25.004;2024-02-23T03:24:10;7.13;;;5.07;;
15153;SDS011;7677;41.896;25.004;2024-02-23T03:26:37;6.20;;;4.57;;
15153;SDS011;7677;41.896;25.004;2024-02-23T03:29:05;9.27;;;6.20;;
15153;SDS011;7677;41.896;25.004;2024-02-23T03:31:32;7.37;;;5.43;;
15153;SDS011;7677;41.896;25.004;2024-02-23T03:33:59;7.77;;;5.40;;
15153;SDS011;7677;41.896;25.004;2024-02-23T03:36:26;7.33;;;5.83;;
15153;SDS011;7677;41.896;25.004;2024-02-23T03:38:53;7.20;;;5.53;;
15153;SDS011;7677;41.896;25.004;2024-02-23T03:41:22;9.13;;;6.17;;
15153;SDS011;7677;41.896;25.004;2024-02-23T03:43:49;7.47;;;5.67;;
15153;SDS011;7677;41.896;25.004;2024-02-23T03:46:16;7.33;;;5.63;;
15153;SDS011;7677;41.896;25.004;2024-02-23T03:48:45;7.73;;;5.80;;
15153;SDS011;7677;41.896;25.004;2024-02-23T03:51:12;8.30;;;4.97;;
15153;SDS011;7677;41.896;25.004;2024-02-23T03:53:39;6.50;;;4.70;;
15153;SDS011;7677;41.896;25.004;2024-02-23T03:56:06;7.43;;;5.70;;
15153;SDS011;7677;41.896;25.004;2024-02-23T03:58:35;6.33;;;4.80;;
15153;SDS011;7677;41.896;25.004;2024-02-23T04:01:02;10.97;;;5.47;;
15153;SDS011;7677;41.896;25.004;2024-02-23T04:03:29;7.70;;;5.50;;
15153;SDS011;7677;41.896;25.004;2024-02-23T04:05:57;7.13;;;4.70;;
15153;SDS011;7677;41.896;25.004;2024-02-23T04:08:24;6.90;;;5.30;;
15153;SDS011;7677;41.896;25.004;2024-02-23T04:10:51;6.93;;;5.43;;
15153;SDS011;7677;41.896;25.004;2024-02-23T04:13:19;9.77;;;6.00;;
15153;SDS011;7677;41.896;25.004;2024-02-23T04:15:48;6.53;;;4.47;;
15153;SDS011;7677;41.896;25.004;2024-02-23T04:18:15;6.53;;;5.57;;
15153;SDS011;7677;41.896;25.004;2024-02-23T04:20:42;6.13;;;4.77;;
15153;SDS011;7677;41.896;25.004;2024-02-23T04:23:09;6.33;;;5.30;;
15153;SDS011;7677;41.896;25.004;2024-02-23T04:25:36;7.13;;;5.37;;
15153;SDS011;7677;41.896;25.004;2024-02-23T04:28:04;6.83;;;5.13;;
15153;SDS011;7677;41.896;25.004;2024-02-23T04:30:31;5.63;;;5.00;;
15153;SDS011;7677;41.896;25.004;2024-02-23T04:33:00;6.50;;;5.40;;
15153;SDS011;7677;41.896;25.004;2024-02-23T04:35:27;5.73;;;4.30;;
15153;SDS011;7677;41.896;25.004;2024-02-23T04:37:54;7.43;;;5.37;;
15153;SDS011;7677;41.896;25.004;2024-02-23T04:40:22;10.53;;;5.20;;
15153;SDS011;7677;41.896;25.004;2024-02-23T04:42:49;6.97;;;4.80;;
15153;SDS011;7677;41.896;25.004;2024-02-23T04:45:16;7.87;;;6.03;;
15153;SDS011;7677;41.896;25.004;2024-02-23T04:47:44;9.27;;;5.57;;
15153;SDS011;7677;41.896;25.004;2024-02-23T04:50:13;7.37;;;5.73;;
15153;SDS011;7677;41.896;25.004;2024-02-23T04:52:40;7.33;;;5.80;;
15153;SDS011;7677;41.896;25.004;2024-02-23T04:55:08;7.27;;;5.40;;
15153;SDS011;7677;41.896;25.004;2024-02-23T04:57:36;10.10;;;5.23;;
15153;SDS011;7677;41.896;25.004;2024-02-23T05:00:04;7.70;;;5.40;;
15153;SDS011;7677;41.896;25.004;2024-02-23T05:02:32;7.93;;;5.47;;
15153;SDS011;7677;41.896;25.004;2024-02-23T05:05:00;7.50;;;5.03;;
15153;SDS011;7677;41.896;25.004;2024-02-23T05:07:31;6.97;;;5.53;;
15153;SDS011;7677;41.896;25.004;2024-02-23T05:09:58;6.13;;;4.47;;
15153;SDS011;7677;41.896;25.004;2024-02-23T05:12:25;5.27;;;4.00;;
15153;SDS011;7677;41.896;25.004;2024-02-23T05:14:53;4.40;;;4.00;;
15153;SDS011;7677;41.896;25.004;2024-02-23T05:17:20;6.93;;;4.23;;
15153;SDS011;7677;41.896;25.004;2024-02-23T05:19:48;4.77;;;3.77;;
15153;SDS011;7677;41.896;25.004;2024-02-23T05:22:15;5.27;;;3.93;;
15153;SDS011;7677;41.896;25.004;2024-02-23T05:24:44;5.67;;;4.23;;
15153;SDS011;7677;41.896;25.004;2024-02-23T05:27:11;6.07;;;4.93;;
15153;SDS011;7677;41.896;25.004;2024-02-23T05:29:38;5.57;;;4.37;;
15153;SDS011;7677;41.896;25.004;2024-02-23T05:32:06;5.30;;;4.20;;
15153;SDS011;7677;41.896;25.004;2024-02-23T05:34:33;6.17;;;4.80;;
15153;SDS011;7677;41.896;25.004;2024-02-23T05:37:01;5.27;;;4.67;;
15153;SDS011;7677;41.896;25.004;2024-02-23T05:39:29;6.43;;;4.27;;
15153;SDS011;7677;41.896;25.004;2024-02-23T05:41:58;5.93;;;4.57;;
15153;SDS011;7677;41.896;25.004;2024-02-23T05:44:25;6.73;;;5.30;;
15153;SDS011;7677;41.896;25.004;2024-02-23T05:46:53;6.83;;;5.23;;
15153;SDS011;7677;41.896;25.004;2024-02-23T05:49:21;7.47;;;4.80;;
15153;SDS011;7677;41.896;25.004;2024-02-23T05:51:48;6.60;;;5.33;;
15153;SDS011;7677;41.896;25.004;2024-02-23T05:54:15;6.13;;;5.10;;
15153;SDS011;7677;41.896;25.004;2024-02-23T05:56:43;6.83;;;4.80;;
15153;SDS011;7677;41.896;25.004;2024-02-23T05:59:12;9.43;;;5.83;;
15153;SDS011;7677;41.896;25.004;2024-02-23T06:01:39;5.87;;;4.73;;
15153;SDS011;7677;41.896;25.004;2024-02-23T06:04:07;6.53;;;5.00;;
15153;SDS011;7677;41.896;25.004;2024-02-23T06:06:34;6.57;;;4.33;;
15153;SDS011;7677;41.896;25.004;2024-02-23T06:09:01;6.03;;;4.70;;
15153;SDS011;7677;41.896;25.004;2024-02-23T06:11:29;4.60;;;4.17;;
15153;SDS011;7677;41.896;25.004;2024-02-23T06:13:56;18.33;;;9.63;;
15153;SDS011;7677;41.896;25.004;2024-02-23T06:16:23;13.83;;;9.23;;
15153;SDS011;7677;41.896;25.004;2024-02-23T06:18:50;15.70;;;8.70;;
15153;SDS011;7677;41.896;25.004;2024-02-23T06:21:18;13.03;;;9.00;;
15153;SDS011;7677;41.896;25.004;2024-02-23T06:23:45;9.40;;;6.50;;
15153;SDS011;7677;41.896;25.004;2024-02-23T06:26:12;8.40;;;6.27;;
15153;SDS011;7677;41.896;25.004;2024-02-23T06:28:39;9.13;;;6.63;;
15153;SDS011;7677;41.896;25.004;2024-02-23T06:31:08;9.67;;;6.50;;
15153;SDS011;7677;41.896;25.004;2024-02-23T06:33:37;7.23;;;5.43;;
15153;SDS011;7677;41.896;25.004;2024-02-23T06:36:05;6.70;;;4.70;;
15153;SDS011;7677;41.896;25.004;2024-02-23T06:38:33;7.13;;;5.40;;
15153;SDS011;7677;41.896;25.004;2024-02-23T06:41:01;5.60;;;4.37;;
15153;SDS011;7677;41.896;25.004;2024-02-23T06:43:28;7.17;;;4.83;;
15153;SDS011;7677;41.896;25.004;2024-02-23T06:45:55;4.90;;;3.97;;
15153;SDS011;7677;41.896;25.004;2024-02-23T06:48:23;8.13;;;5.60;;
15153;SDS011;7677;41.896;25.004;2024-02-23T06:50:52;8.23;;;5.60;;
15153;SDS011;7677;41.896;25.004;2024-02-23T06:53:20;6.67;;;5.13;;
15153;SDS011;7677;41.896;25.004;2024-02-23T06:55:47;7.87;;;6.47;;
15153;SDS011;7677;41.896;25.004;2024-02-23T06:58:14;6.37;;;5.00;;
15153;SDS011;7677;41.896;25.004;2024-02-23T07:00:42;10.87;;;5.10;;
15153;SDS011;7677;41.896;25.004;2024-02-23T07:03:09;9.57;;;6.43;;
15153;SDS011;7677;41.896;25.004;2024-02-23T07:05:36;10.60;;;7.30;;
15153;SDS011;7677;41.896;25.004;2024-02-23T07:08:05;10.50;;;8.33;;
15153;SDS011;7677;41.896;25.004;2024-02-23T07:10:33;12.43;;;8.57;;
15153;SDS011;7677;41.896;25.004;2024-02-23T07:13:00;21.50;;;10.33;;
15153;SDS011;7677;41.896;25.004;2024-02-23T07:15:27;21.50;;;10.93;;
15153;SDS011;7677;41.896;25.004;2024-02-23T07:17:55;15.67;;;10.87;;
15153;SDS011;7677;41.896;25.004;2024-02-23T07:20:23;24.13;;;10.70;;
15153;SDS011;7677;41.896;25.004;2024-02-23T07:22:50;23.87;;;12.40;;
15153;SDS011;7677;41.896;25.004;2024-02-23T07:25:19;21.57;;;12.87;;
15153;SDS011;7677;41.896;25.004;2024-02-23T07:27:47;19.27;;;11.93;;
15153;SDS011;7677;41.896;25.004;2024-02-23T07:30:15;22.17;;;13.10;;
15153;SDS011;7677;41.896;25.004;2024-02-23T07:32:42;29.37;;;14.40;;
15153;SDS011;7677;41.896;25.004;2024-02-23T07:35:10;31.50;;;18.40;;
15153;SDS011;7677;41.896;25.004;2024-02-23T07:37:38;28.83;;;17.27;;
15153;SDS011;7677;41.896;25.004;2024-02-23T07:40:06;27.23;;;17.00;;
15153;SDS011;7677;41.896;25.004;2024-02-23T07:42:35;32.40;;;16.53;;
15153;SDS011;7677;41.896;25.004;2024-02-23T07:45:03;33.83;;;17.50;;
15153;SDS011;7677;41.896;25.004;2024-02-23T07:47:30;31.13;;;18.10;;
15153;SDS011;7677;41.896;25.004;2024-02-23T07:49:58;20.00;;;14.13;;
15153;SDS011;7677;41.896;25.004;2024-02-23T07:52:26;19.73;;;12.90;;
15153;SDS011;7677;41.896;25.004;2024-02-23T07:54:53;22.87;;;13.70;;
15153;SDS011;7677;41.896;25.004;2024-02-23T07:57:20;19.60;;;13.67;;
15153;SDS011;7677;41.896;25.004;2024-02-23T07:59:49;18.97;;;13.23;;
15153;SDS011;7677;41.896;25.004;2024-02-23T08:02:16;22.23;;;13.70;;
15153;SDS011;7677;41.896;25.004;2024-02-23T08:04:43;22.07;;;13.20;;
15153;SDS011;7677;41.896;25.004;2024-02-23T08:07:12;20.40;;;13.30;;
15153;SDS011;7677;41.896;25.004;2024-02-23T08:09:40;20.83;;;12.37;;
15153;SDS011;7677;41.896;25.004;2024-02-23T08:12:07;17.27;;;11.23;;
15153;SDS011;7677;41.896;25.004;2024-02-23T08:14:36;18.33;;;12.60;;
15153;SDS011;7677;41.896;25.004;2024-02-23T08:17:05;21.23;;;13.10;;
15153;SDS011;7677;41.896;25.004;2024-02-23T08:19:32;22.93;;;14.17;;
15153;SDS011;7677;41.896;25.004;2024-02-23T08:21:59;33.20;;;16.60;;
15153;SDS011;7677;41.896;25.004;2024-02-23T08:24:26;40.07;;;19.00;;
15153;SDS011;7677;41.896;25.004;2024-02-23T08:26:54;34.83;;;18.93;;
15153;SDS011;7677;41.896;25.004;2024-02-23T08:29:21;29.17;;;18.30;;
15153;SDS011;7677;41.896;25.004;2024-02-23T08:31:48;30.73;;;18.17;;
15153;SDS011;7677;41.896;25.004;2024-02-23T08:34:17;32.83;;;17.77;;
15153;SDS011;7677;41.896;25.004;2024-02-23T08:36:44;27.20;;;16.70;;
15153;SDS011;7677;41.896;25.004;2024-02-23T08:39:11;33.00;;;17.23;;
15153;SDS011;7677;41.896;25.004;2024-02-23T08:41:38;33.33;;;17.87;;
15153;SDS011;7677;41.896;25.004;2024-02-23T08:44:06;30.40;;;17.37;;
15153;SDS011;7677;41.896;25.004;2024-02-23T08:46:33;30.63;;;15.33;;
15153;SDS011;7677;41.896;25.004;2024-02-23T08:49:00;24.67;;;14.90;;
15153;SDS011;7677;41.896;25.004;2024-02-23T08:51:29;35.33;;;16.63;;
15153;SDS011;7677;41.896;25.004;2024-02-23T08:53:56;30.97;;;16.03;;
15153;SDS011;7677;41.896;25.004;2024-02-23T08:56:28;40.57;;;20.27;;
15153;SDS011;7677;41.896;25.004;2024-02-23T08:58:55;125.90;;;53.73;;
15153;SDS011;7677;41.896;25.004;2024-02-23T09:01:23;98.53;;;48.33;;
15153;SDS011;7677;41.896;25.004;2024-02-23T09:03:50;26.53;;;16.03;;
15153;SDS011;7677;41.896;25.004;2024-02-23T09:06:17;31.27;;;20.00;;
15153;SDS011;7677;41.896;25.004;2024-02-23T09:08:46;37.43;;;23.50;;
15153;SDS011;7677;41.896;25.004;2024-02-23T09:11:13;17.10;;;12.77;;
15153;SDS011;7677;41.896;25.004;2024-02-23T09:13:41;14.57;;;10.37;;
15153;SDS011;7677;41.896;25.004;2024-02-23T09:16:08;12.07;;;9.07;;
15153;SDS011;7677;41.896;25.004;2024-02-23T09:18:35;11.57;;;8.27;;
15153;SDS011;7677;41.896;25.004;2024-02-23T09:21:03;13.10;;;9.83;;
15153;SDS011;7677;41.896;25.004;2024-02-23T09:23:30;11.87;;;9.27;;
15153;SDS011;7677;41.896;25.004;2024-02-23T09:26:00;11.80;;;9.13;;
15153;SDS011;7677;41.896;25.004;2024-02-23T09:28:27;14.73;;;10.30;;
15153;SDS011;7677;41.896;25.004;2024-02-23T09:30:56;13.93;;;10.10;;
15153;SDS011;7677;41.896;25.004;2024-02-23T09:33:24;12.73;;;10.13;;
15153;SDS011;7677;41.896;25.004;2024-02-23T09:35:51;15.07;;;11.13;;
15153;SDS011;7677;41.896;25.004;2024-02-23T09:38:18;13.83;;;9.60;;
15153;SDS011;7677;41.896;25.004;2024-02-23T09:40:46;15.67;;;11.00;;
15153;SDS011;7677;41.896;25.004;2024-02-23T09:43:15;13.90;;;10.43;;
15153;SDS011;7677;41.896;25.004;2024-02-23T09:45:43;14.20;;;10.10;;
15153;SDS011;7677;41.896;25.004;2024-02-23T09:48:11;13.67;;;10.30;;
15153;SDS011;7677;41.896;25.004;2024-02-23T09:50:39;16.07;;;11.13;;
15153;SDS011;7677;41.896;25.004;2024-02-23T09:53:07;15.10;;;10.97;;
15153;SDS011;7677;41.896;25.004;2024-02-23T09:55:36;14.23;;;10.67;;
15153;SDS011;7677;41.896;25.004;2024-02-23T09:58:03;17.07;;;10.43;;
15153;SDS011;7677;41.896;25.004;2024-02-23T10:00:32;16.60;;;11.80;;
15153;SDS011;7677;41.896;25.004;2024-02-23T10:03:00;14.77;;;9.93;;
15153;SDS011;7677;41.896;25.004;2024-02-23T10:05:29;15.27;;;10.57;;
15153;SDS011;7677;41.896;25.004;2024-02-23T10:07:57;19.60;;;10.00;;
15153;SDS011;7677;41.896;25.004;2024-02-23T10:10:25;13.87;;;9.77;;
15153;SDS011;7677;41.896;25.004;2024-02-23T10:12:56;13.03;;;10.37;;
15153;SDS011;7677;41.896;25.004;2024-02-23T10:15:24;12.27;;;10.10;;
15153;SDS011;7677;41.896;25.004;2024-02-23T10:17:53;12.20;;;10.10;;
15153;SDS011;7677;41.896;25.004;2024-02-23T10:20:20;11.73;;;9.43;;
15153;SDS011;7677;41.896;25.004;2024-02-23T10:22:47;15.80;;;10.57;;
15153;SDS011;7677;41.896;25.004;2024-02-23T10:25:17;13.70;;;9.53;;
15153;SDS011;7677;41.896;25.004;2024-02-23T10:27:44;13.50;;;9.70;;
15153;SDS011;7677;41.896;25.004;2024-02-23T10:30:12;12.73;;;9.23;;
15153;SDS011;7677;41.896;25.004;2024-02-23T10:32:40;12.47;;;9.60;;
15153;SDS011;7677;41.896;25.004;2024-02-23T10:35:09;12.83;;;9.37;;
15153;SDS011;7677;41.896;25.004;2024-02-23T10:37:37;14.07;;;9.60;;
15153;SDS011;7677;41.896;25.004;2024-02-23T10:40:04;15.43;;;10.73;;
15153;SDS011;7677;41.896;25.004;2024-02-23T10:42:35;12.53;;;9.90;;
15153;SDS011;7677;41.896;25.004;2024-02-23T10:45:03;15.87;;;10.83;;
15153;SDS011;7677;41.896;25.004;2024-02-23T10:47:32;12.90;;;9.97;;
15153;SDS011;7677;41.896;25.004;2024-02-23T10:50:00;11.97;;;9.40;;
15153;SDS011;7677;41.896;25.004;2024-02-23T10:52:29;11.70;;;9.37;;
15153;SDS011;7677;41.896;25.004;2024-02-23T10:54:57;15.57;;;9.83;;
15153;SDS011;7677;41.896;25.004;2024-02-23T10:57:29;15.93;;;9.87;;
15153;SDS011;7677;41.896;25.004;2024-02-23T10:59:58;10.83;;;8.90;;
15153;SDS011;7677;41.896;25.004;2024-02-23T11:02:25;11.80;;;9.57;;
15153;SDS011;7677;41.896;25.004;2024-02-23T11:04:55;12.43;;;9.63;;
15153;SDS011;7677;41.896;25.004;2024-02-23T11:07:23;10.60;;;9.20;;
15153;SDS011;7677;41.896;25.004;2024-02-23T11:09:53;12.17;;;9.43;;
15153;SDS011;7677;41.896;25.004;2024-02-23T11:12:24;13.73;;;9.90;;
15153;SDS011;7677;41.896;25.004;2024-02-23T11:14:51;13.70;;;9.37;;
15153;SDS011;7677;41.896;25.004;2024-02-23T11:17:23;11.93;;;9.77;;
15153;SDS011;7677;41.896;25.004;2024-02-23T11:19:53;12.30;;;9.43;;
15153;SDS011;7677;41.896;25.004;2024-02-23T11:22:24;12.27;;;9.87;;
15153;SDS011;7677;41.896;25.004;2024-02-23T11:24:54;14.17;;;9.70;;
15153;SDS011;7677;41.896;25.004;2024-02-23T11:27:29;11.40;;;9.37;;
15153;SDS011;7677;41.896;25.004;2024-02-23T11:30:01;12.13;;;9.57;;
15153;SDS011;7677;41.896;25.004;2024-02-23T11:32:36;11.43;;;9.23;;
15153;SDS011;7677;41.896;25.004;2024-02-23T11:35:05;16.10;;;10.43;;
15153;SDS011;7677;41.896;25.004;2024-02-23T11:37:43;12.53;;;10.33;;
15153;SDS011;7677;41.896;25.004;2024-02-23T11:40:13;16.73;;;10.47;;
15153;SDS011;7677;41.896;25.004;2024-02-23T11:42:41;12.17;;;9.40;;
15153;SDS011;7677;41.896;25.004;2024-02-23T11:45:09;13.07;;;9.43;;
15153;SDS011;7677;41.896;25.004;2024-02-23T11:47:37;12.97;;;9.27;;
15153;SDS011;7677;41.896;25.004;2024-02-23T11:50:04;12.50;;;9.57;;
15153;SDS011;7677;41.896;25.004;2024-02-23T11:52:34;14.90;;;9.80;;
15153;SDS011;7677;41.896;25.004;2024-02-23T11:55:02;18.10;;;10.57;;
15153;SDS011;7677;41.896;25.004;2024-02-23T11:57:31;15.53;;;11.10;;
15153;SDS011;7677;41.896;25.004;2024-02-23T12:00:00;13.60;;;10.20;;
15153;SDS011;7677;41.896;25.004;2024-02-23T12:02:28;13.30;;;9.93;;
15153;SDS011;7677;41.896;25.004;2024-02-23T12:04:55;12.57;;;9.77;;
15153;SDS011;7677;41.896;25.004;2024-02-23T12:07:23;14.50;;;10.83;;
15153;SDS011;7677;41.896;25.004;2024-02-23T12:09:51;13.00;;;8.87;;
15153;SDS011;7677;41.896;25.004;2024-02-23T12:12:18;12.97;;;9.23;;
15153;SDS011;7677;41.896;25.004;2024-02-23T12:14:47;13.10;;;9.23;;
15153;SDS011;7677;41.896;25.004;2024-02-23T12:17:14;10.17;;;8.70;;
15153;SDS011;7677;41.896;25.004;2024-02-23T12:19:42;12.80;;;9.67;;
15153;SDS011;7677;41.896;25.004;2024-02-23T12:22:09;12.17;;;9.67;;
15153;SDS011;7677;41.896;25.004;2024-02-23T12:24:37;11.90;;;9.10;;
15153;SDS011;7677;41.896;25.004;2024-02-23T12:27:04;12.20;;;8.37;;
15153;SDS011;7677;41.896;25.004;2024-02-23T12:29:31;10.37;;;8.13;;
15153;SDS011;7677;41.896;25.004;2024-02-23T12:32:04;11.03;;;8.00;;
15153;SDS011;7677;41.896;25.004;2024-02-23T12:34:32;10.93;;;7.87;;
15153;SDS011;7677;41.896;25.004;2024-02-23T12:36:59;9.73;;;7.80;;
15153;SDS011;7677;41.896;25.004;2024-02-23T12:39:29;9.10;;;7.53;;
15153;SDS011;7677;41.896;25.004;2024-02-23T12:41:56;10.83;;;8.77;;
15153;SDS011;7677;41.896;25.004;2024-02-23T12:44:23;9.30;;;7.53;;
15153;SDS011;7677;41.896;25.004;2024-02-23T12:46:51;9.97;;;8.30;;
15153;SDS011;7677;41.896;25.004;2024-02-23T12:49:20;10.27;;;8.50;;
15153;SDS011;7677;41.896;25.004;2024-02-23T12:51:47;12.67;;;9.07;;
15153;SDS011;7677;41.896;25.004;2024-02-23T12:54:14;9.63;;;7.87;;
15153;SDS011;7677;41.896;25.004;2024-02-23T12:56:42;8.37;;;7.40;;
15153;SDS011;7677;41.896;25.004;2024-02-23T12:59:09;9.77;;;7.67;;
15153;SDS011;7677;41.896;25.004;2024-02-23T13:01:37;9.40;;;7.43;;
15153;SDS011;7677;41.896;25.004;2024-02-23T13:04:04;9.07;;;7.43;;
15153;SDS011;7677;41.896;25.004;2024-02-23T13:06:36;9.67;;;7.37;;
15153;SDS011;7677;41.896;25.004;2024-02-23T13:09:04;11.03;;;7.90;;
15153;SDS011;7677;41.896;25.004;2024-02-23T13:11:33;10.27;;;7.30;;
15153;SDS011;7677;41.896;25.004;2024-02-23T13:14:00;9.83;;;7.57;;
15153;SDS011;7677;41.896;25.004;2024-02-23T13:16:28;9.70;;;7.97;;
15153;SDS011;7677;41.896;25.004;2024-02-23T13:18:55;9.67;;;8.07;;
15153;SDS011;7677;41.896;25.004;2024-02-23T13:21:22;11.73;;;7.80;;
15153;SDS011;7677;41.896;25.004;2024-02-23T13:23:51;10.87;;;7.47;;
15153;SDS011;7677;41.896;25.004;2024-02-23T13:26:19;9.43;;;7.90;;
15153;SDS011;7677;41.896;25.004;2024-02-23T13:28:46;9.50;;;8.50;;
15153;SDS011;7677;41.896;25.004;2024-02-23T13:31:13;11.83;;;7.90;;
15153;SDS011;7677;41.896;25.004;2024-02-23T13:33:42;8.20;;;7.00;;
15153;SDS011;7677;41.896;25.004;2024-02-23T13:36:10;9.03;;;7.53;;
15153;SDS011;7677;41.896;25.004;2024-02-23T13:38:38;11.93;;;8.70;;
15153;SDS011;7677;41.896;25.004;2024-02-23T13:41:08;9.80;;;8.23;;
15153;SDS011;7677;41.896;25.004;2024-02-23T13:43:36;11.17;;;8.47;;
15153;SDS011;7677;41.896;25.004;2024-02-23T13:46:04;11.53;;;8.20;;
15153;SDS011;7677;41.896;25.004;2024-02-23T13:48:31;9.10;;;7.77;;
15153;SDS011;7677;41.896;25.004;2024-02-23T13:50:58;14.77;;;9.23;;
15153;SDS011;7677;41.896;25.004;2024-02-23T13:53:28;10.60;;;8.30;;
15153;SDS011;7677;41.896;25.004;2024-02-23T13:55:57;13.20;;;8.50;;
15153;SDS011;7677;41.896;25.004;2024-02-23T13:58:26;8.63;;;7.60;;
15153;SDS011;7677;41.896;25.004;2024-02-23T14:00:54;12.23;;;8.00;;
15153;SDS011;7677;41.896;25.004;2024-02-23T14:03:22;9.83;;;7.57;;
15153;SDS011;7677;41.896;25.004;2024-02-23T14:05:49;10.53;;;8.13;;
15153;SDS011;7677;41.896;25.004;2024-02-23T14:08:17;8.60;;;7.43;;
15153;SDS011;7677;41.896;25.004;2024-02-23T14:10:44;11.23;;;7.63;;
15153;SDS011;7677;41.896;25.004;2024-02-23T14:13:11;9.73;;;7.60;;
15153;SDS011;7677;41.896;25.004;2024-02-23T14:15:40;11.93;;;8.47;;
15153;SDS011;7677;41.896;25.004;2024-02-23T14:18:07;12.33;;;9.03;;
15153;SDS011;7677;41.896;25.004;2024-02-23T14:20:34;9.77;;;7.60;;
15153;SDS011;7677;41.896;25.004;2024-02-23T14:23:01;11.40;;;9.03;;
15153;SDS011;7677;41.896;25.004;2024-02-23T14:25:29;11.47;;;9.27;;
15153;SDS011;7677;41.896;25.004;2024-02-23T14:27:56;10.90;;;9.03;;
15153;SDS011;7677;41.896;25.004;2024-02-23T14:30:23;11.87;;;9.33;;
15153;SDS011;7677;41.896;25.004;2024-02-23T14:32:52;12.93;;;8.23;;
15153;SDS011;7677;41.896;25.004;2024-02-23T14:35:19;11.67;;;8.07;;
15153;SDS011;7677;41.896;25.004;2024-02-23T14:37:46;10.17;;;8.07;;
15153;SDS011;7677;41.896;25.004;2024-02-23T14:40:14;10.27;;;7.93;;
15153;SDS011;7677;41.896;25.004;2024-02-23T14:42:41;12.00;;;8.70;;